sensor_id;sensor_type;location;lat;lon;timestamp;temperature;humidity
71627;DHT22;59475;52.464;13.590;2023-07-31T00:00:30;15.49;90.47
71627;DHT22;59475;52.464;13.590;2023-07-31T00:02:56;15.45;90.40
71627;DHT22;59475;52.464;13.590;2023-07-31T00:05:21;15.44;90.80
71627;DHT22;59475;52.464;13.590;2023-07-31T00:07:47;15.42;90.43
71627;DHT22;59475;52.464;13.590;2023-07-31T00:10:12;15.38;90.48
71627;DHT22;59475;52.464;13.590;2023-07-31T00:12:39;15.41;90.99
71627;DHT22;59475;52.464;13.590;2023-07-31T00:15:06;15.35;90.79
71627;DHT22;59475;52.464;13.590;2023-07-31T00:17:31;15.24;90.85
71627;DHT22;59475;52.464;13.590;2023-07-31T00:19:57;15.12;91.33
71627;DHT22;59475;52.464;13.590;2023-07-31T00:22:22;15.07;91.72
71627;DHT22;59475;52.464;13.590;2023-07-31T00:24:47;14.98;92.08
71627;DHT22;59475;52.464;13.590;2023-07-31T00:27:13;14.96;92.10
71627;DHT22;59475;52.464;13.590;2023-07-31T00:29:38;14.93;92.31
71627;DHT22;59475;52.464;13.590;2023-07-31T00:32:04;14.91;92.31
71627;DHT22;59475;52.464;13.590;2023-07-31T00:34:30;14.91;92.81
71627;DHT22;59475;52.464;13.590;2023-07-31T00:36:55;14.87;92.92
71627;DHT22;59475;52.464;13.590;2023-07-31T00:39:20;14.86;92.97
71627;DHT22;59475;52.464;13.590;2023-07-31T00:41:46;14.84;93.60
71627;DHT22;59475;52.464;13.590;2023-07-31T00:44:11;14.86;93.38
71627;DHT22;59475;52.464;13.590;2023-07-31T00:46:36;14.88;93.32
71627;DHT22;59475;52.464;13.590;2023-07-31T00:49:02;14.93;93.40
71627;DHT22;59475;52.464;13.590;2023-07-31T00:51:28;14.94;93.13
71627;DHT22;59475;52.464;13.590;2023-07-31T00:57:15;15.01;92.64
71627;DHT22;59475;52.464;13.590;2023-07-31T00:59:41;15.10;93.42
71627;DHT22;59475;52.464;13.590;2023-07-31T01:02:06;15.15;93.58
71627;DHT22;59475;52.464;13.590;2023-07-31T01:04:32;15.20;93.41
71627;DHT22;59475;52.464;13.590;2023-07-31T01:07:12;15.20;93.51
71627;DHT22;59475;52.464;13.590;2023-07-31T01:12:27;15.23;93.22
71627;DHT22;59475;52.464;13.590;2023-07-31T01:15:06;15.28;93.57
71627;DHT22;59475;52.464;13.590;2023-07-31T01:17:34;15.27;93.21
71627;DHT22;59475;52.464;13.590;2023-07-31T01:20:02;15.23;92.87
71627;DHT22;59475;52.464;13.590;2023-07-31T01:28:38;15.31;92.97
71627;DHT22;59475;52.464;13.590;2023-07-31T01:31:07;15.34;93.50
71627;DHT22;59475;52.464;13.590;2023-07-31T01:33:33;15.36;93.39
71627;DHT22;59475;52.464;13.590;2023-07-31T01:39:21;15.44;93.82
71627;DHT22;59475;52.464;13.590;2023-07-31T01:41:47;15.42;93.78
71627;DHT22;59475;52.464;13.590;2023-07-31T01:44:12;15.41;93.47
71627;DHT22;59475;52.464;13.590;2023-07-31T01:46:37;15.38;93.29
71627;DHT22;59475;52.464;13.590;2023-07-31T01:49:03;15.39;93.37
71627;DHT22;59475;52.464;13.590;2023-07-31T01:51:30;15.42;93.08
71627;DHT22;59475;52.464;13.590;2023-07-31T01:53:59;15.41;93.26
71627;DHT22;59475;52.464;13.590;2023-07-31T01:56:24;15.44;93.50
71627;DHT22;59475;52.464;13.590;2023-07-31T01:58:50;15.46;93.57
71627;DHT22;59475;52.464;13.590;2023-07-31T02:01:15;15.48;93.56
71627;DHT22;59475;52.464;13.590;2023-07-31T02:03:40;15.45;93.82
71627;DHT22;59475;52.464;13.590;2023-07-31T02:06:07;15.45;93.93
71627;DHT22;59475;52.464;13.590;2023-07-31T02:08:32;15.48;94.18
71627;DHT22;59475;52.464;13.590;2023-07-31T02:10:58;15.53;94.32
71627;DHT22;59475;52.464;13.590;2023-07-31T02:13:23;15.53;94.15
71627;DHT22;59475;52.464;13.590;2023-07-31T02:15:48;15.52;93.99
71627;DHT22;59475;52.464;13.590;2023-07-31T02:18:14;15.52;93.83
71627;DHT22;59475;52.464;13.590;2023-07-31T02:20:39;15.51;93.07
71627;DHT22;59475;52.464;13.590;2023-07-31T02:23:05;15.53;93.33
71627;DHT22;59475;52.464;13.590;2023-07-31T02:25:30;15.52;92.99
71627;DHT22;59475;52.464;13.590;2023-07-31T02:27:56;15.46;92.79
71627;DHT22;59475;52.464;13.590;2023-07-31T02:30:21;15.45;93.06
71627;DHT22;59475;52.464;13.590;2023-07-31T02:32:47;15.46;93.20
71627;DHT22;59475;52.464;13.590;2023-07-31T02:35:12;15.48;93.21
71627;DHT22;59475;52.464;13.590;2023-07-31T02:37:41;15.51;93.16
71627;DHT22;59475;52.464;13.590;2023-07-31T02:40:07;15.46;93.13
71627;DHT22;59475;52.464;13.590;2023-07-31T02:42:32;15.44;92.95
71627;DHT22;59475;52.464;13.590;2023-07-31T02:44:57;15.39;93.03
71627;DHT22;59475;52.464;13.590;2023-07-31T02:47:23;15.39;93.17
71627;DHT22;59475;52.464;13.590;2023-07-31T02:49:48;15.35;93.48
71627;DHT22;59475;52.464;13.590;2023-07-31T02:52:13;15.34;93.20
71627;DHT22;59475;52.464;13.590;2023-07-31T02:54:39;15.34;93.37
71627;DHT22;59475;52.464;13.590;2023-07-31T02:57:04;15.35;93.72
71627;DHT22;59475;52.464;13.590;2023-07-31T02:59:30;15.31;94.14
71627;DHT22;59475;52.464;13.590;2023-07-31T03:01:55;15.31;94.24
71627;DHT22;59475;52.464;13.590;2023-07-31T03:04:21;15.30;94.57
71627;DHT22;59475;52.464;13.590;2023-07-31T03:06:46;15.27;94.90
71627;DHT22;59475;52.464;13.590;2023-07-31T03:09:11;15.25;94.86
71627;DHT22;59475;52.464;13.590;2023-07-31T03:11:37;15.27;95.47
71627;DHT22;59475;52.464;13.590;2023-07-31T03:14:02;15.24;95.25
71627;DHT22;59475;52.464;13.590;2023-07-31T03:16:28;15.31;94.95
71627;DHT22;59475;52.464;13.590;2023-07-31T03:18:54;15.27;95.09
71627;DHT22;59475;52.464;13.590;2023-07-31T03:21:19;15.23;95.15
71627;DHT22;59475;52.464;13.590;2023-07-31T03:23:44;15.23;95.43
71627;DHT22;59475;52.464;13.590;2023-07-31T03:26:10;15.25;95.03
71627;DHT22;59475;52.464;13.590;2023-07-31T03:28:36;15.24;95.07
71627;DHT22;59475;52.464;13.590;2023-07-31T03:31:01;15.18;95.19
71627;DHT22;59475;52.464;13.590;2023-07-31T03:33:27;15.15;95.26
71627;DHT22;59475;52.464;13.590;2023-07-31T03:35:52;15.20;95.41
71627;DHT22;59475;52.464;13.590;2023-07-31T03:38:18;15.18;95.50
71627;DHT22;59475;52.464;13.590;2023-07-31T03:40:43;15.17;95.73
71627;DHT22;59475;52.464;13.590;2023-07-31T03:43:09;15.17;95.97
71627;DHT22;59475;52.464;13.590;2023-07-31T03:45:34;15.17;95.52
71627;DHT22;59475;52.464;13.590;2023-07-31T03:48:00;15.18;95.68
71627;DHT22;59475;52.464;13.590;2023-07-31T03:50:26;15.20;95.70
71627;DHT22;59475;52.464;13.590;2023-07-31T03:52:52;15.23;95.62
71627;DHT22;59475;52.464;13.590;2023-07-31T03:55:17;15.25;95.92
71627;DHT22;59475;52.464;13.590;2023-07-31T03:57:43;15.21;95.65
71627;DHT22;59475;52.464;13.590;2023-07-31T04:00:09;15.25;95.77
71627;DHT22;59475;52.464;13.590;2023-07-31T04:02:35;15.25;95.91
71627;DHT22;59475;52.464;13.590;2023-07-31T04:05:00;15.24;95.65
71627;DHT22;59475;52.464;13.590;2023-07-31T04:07:25;15.23;95.85
71627;DHT22;59475;52.464;13.590;2023-07-31T04:09:51;15.28;95.49
71627;DHT22;59475;52.464;13.590;2023-07-31T04:12:16;15.31;95.55
71627;DHT22;59475;52.464;13.590;2023-07-31T04:14:41;15.31;95.32
71627;DHT22;59475;52.464;13.590;2023-07-31T04:17:07;15.28;95.38
71627;DHT22;59475;52.464;13.590;2023-07-31T04:19:32;15.31;95.65
71627;DHT22;59475;52.464;13.590;2023-07-31T04:21:57;15.34;95.59
71627;DHT22;59475;52.464;13.590;2023-07-31T04:24:23;15.36;95.15
71627;DHT22;59475;52.464;13.590;2023-07-31T04:26:52;15.38;94.98
71627;DHT22;59475;52.464;13.590;2023-07-31T04:29:17;15.36;94.79
71627;DHT22;59475;52.464;13.590;2023-07-31T04:31:43;15.39;95.40
71627;DHT22;59475;52.464;13.590;2023-07-31T04:34:09;15.45;95.11
71627;DHT22;59475;52.464;13.590;2023-07-31T04:39:56;15.45;94.88
71627;DHT22;59475;52.464;13.590;2023-07-31T04:42:21;15.46;94.96
71627;DHT22;59475;52.464;13.590;2023-07-31T04:44:47;15.53;95.29
71627;DHT22;59475;52.464;13.590;2023-07-31T04:47:12;15.48;94.88
71627;DHT22;59475;52.464;13.590;2023-07-31T04:49:37;15.46;95.49
71627;DHT22;59475;52.464;13.590;2023-07-31T04:52:03;15.51;95.25
71627;DHT22;59475;52.464;13.590;2023-07-31T04:54:29;15.49;95.21
71627;DHT22;59475;52.464;13.590;2023-07-31T04:56:54;15.48;95.04
71627;DHT22;59475;52.464;13.590;2023-07-31T04:59:20;15.52;95.04
71627;DHT22;59475;52.464;13.590;2023-07-31T05:01:45;15.52;94.88
71627;DHT22;59475;52.464;13.590;2023-07-31T05:04:14;15.53;94.69
71627;DHT22;59475;52.464;13.590;2023-07-31T05:06:40;15.55;94.97
71627;DHT22;59475;52.464;13.590;2023-07-31T05:09:06;15.58;95.36
71627;DHT22;59475;52.464;13.590;2023-07-31T05:11:31;15.58;95.28
71627;DHT22;59475;52.464;13.590;2023-07-31T05:13:57;15.61;94.92
71627;DHT22;59475;52.464;13.590;2023-07-31T05:16:22;15.63;94.48
71627;DHT22;59475;52.464;13.590;2023-07-31T05:18:47;15.66;94.67
71627;DHT22;59475;52.464;13.590;2023-07-31T05:21:13;15.79;94.27
71627;DHT22;59475;52.464;13.590;2023-07-31T05:23:38;15.80;94.37
71627;DHT22;59475;52.464;13.590;2023-07-31T05:26:05;15.89;94.18
71627;DHT22;59475;52.464;13.590;2023-07-31T05:28:30;15.90;93.93
71627;DHT22;59475;52.464;13.590;2023-07-31T05:31:03;15.96;93.92
71627;DHT22;59475;52.464;13.590;2023-07-31T05:33:29;15.96;93.83
71627;DHT22;59475;52.464;13.590;2023-07-31T05:35:54;16.00;94.39
71627;DHT22;59475;52.464;13.590;2023-07-31T05:38:20;15.99;93.82
71627;DHT22;59475;52.464;13.590;2023-07-31T05:40:46;15.96;93.98
71627;DHT22;59475;52.464;13.590;2023-07-31T05:43:12;15.91;93.86
71627;DHT22;59475;52.464;13.590;2023-07-31T05:45:37;15.89;93.80
71627;DHT22;59475;52.464;13.590;2023-07-31T05:48:03;15.93;94.35
71627;DHT22;59475;52.464;13.590;2023-07-31T05:50:29;15.94;94.79
71627;DHT22;59475;52.464;13.590;2023-07-31T05:52:55;15.99;94.50
71627;DHT22;59475;52.464;13.590;2023-07-31T05:55:20;16.01;94.02
71627;DHT22;59475;52.464;13.590;2023-07-31T05:57:46;16.01;94.31
71627;DHT22;59475;52.464;13.590;2023-07-31T06:00:12;16.00;93.88
71627;DHT22;59475;52.464;13.590;2023-07-31T06:02:38;15.99;93.87
71627;DHT22;59475;52.464;13.590;2023-07-31T06:05:04;16.01;93.95
71627;DHT22;59475;52.464;13.590;2023-07-31T06:07:31;16.06;94.23
71627;DHT22;59475;52.464;13.590;2023-07-31T06:09:56;16.07;93.60
71627;DHT22;59475;52.464;13.590;2023-07-31T06:12:27;16.08;93.40
71627;DHT22;59475;52.464;13.590;2023-07-31T06:14:52;16.11;94.06
71627;DHT22;59475;52.464;13.590;2023-07-31T06:17:17;16.18;93.68
71627;DHT22;59475;52.464;13.590;2023-07-31T06:19:43;16.20;93.54
71627;DHT22;59475;52.464;13.590;2023-07-31T06:22:09;16.21;93.52
71627;DHT22;59475;52.464;13.590;2023-07-31T06:24:34;16.18;93.15
71627;DHT22;59475;52.464;13.590;2023-07-31T06:26:59;16.17;93.30
71627;DHT22;59475;52.464;13.590;2023-07-31T06:29:25;16.21;93.68
71627;DHT22;59475;52.464;13.590;2023-07-31T06:31:50;16.18;93.60
71627;DHT22;59475;52.464;13.590;2023-07-31T06:34:15;16.16;93.09
71627;DHT22;59475;52.464;13.590;2023-07-31T06:36:41;16.17;93.87
71627;DHT22;59475;52.464;13.590;2023-07-31T06:39:06;16.18;93.80
71627;DHT22;59475;52.464;13.590;2023-07-31T06:41:32;16.22;93.98
71627;DHT22;59475;52.464;13.590;2023-07-31T06:43:57;16.27;93.97
71627;DHT22;59475;52.464;13.590;2023-07-31T06:46:22;16.32;93.95
71627;DHT22;59475;52.464;13.590;2023-07-31T06:48:48;16.37;93.87
71627;DHT22;59475;52.464;13.590;2023-07-31T06:51:13;16.40;93.03
71627;DHT22;59475;52.464;13.590;2023-07-31T06:53:38;16.48;93.87
71627;DHT22;59475;52.464;13.590;2023-07-31T06:56:04;16.51;93.28
71627;DHT22;59475;52.464;13.590;2023-07-31T06:58:29;16.54;92.48
71627;DHT22;59475;52.464;13.590;2023-07-31T07:00:55;16.55;92.87
71627;DHT22;59475;52.464;13.590;2023-07-31T07:03:20;16.58;93.40
71627;DHT22;59475;52.464;13.590;2023-07-31T07:05:46;16.58;93.26
71627;DHT22;59475;52.464;13.590;2023-07-31T07:08:11;16.61;93.31
71627;DHT22;59475;52.464;13.590;2023-07-31T07:10:37;16.58;92.75
71627;DHT22;59475;52.464;13.590;2023-07-31T07:13:02;16.45;92.39
71627;DHT22;59475;52.464;13.590;2023-07-31T07:15:28;16.41;93.25
71627;DHT22;59475;52.464;13.590;2023-07-31T07:17:54;16.38;93.69
71627;DHT22;59475;52.464;13.590;2023-07-31T07:20:19;16.49;93.08
71627;DHT22;59475;52.464;13.590;2023-07-31T07:22:45;16.42;93.20
71627;DHT22;59475;52.464;13.590;2023-07-31T07:25:10;16.31;93.56
71627;DHT22;59475;52.464;13.590;2023-07-31T07:27:36;16.27;93.14
71627;DHT22;59475;52.464;13.590;2023-07-31T07:30:01;16.28;93.42
71627;DHT22;59475;52.464;13.590;2023-07-31T07:32:26;16.29;94.18
71627;DHT22;59475;52.464;13.590;2023-07-31T07:34:52;16.40;94.60
71627;DHT22;59475;52.464;13.590;2023-07-31T07:37:17;16.42;94.52
71627;DHT22;59475;52.464;13.590;2023-07-31T07:39:43;16.49;94.32
71627;DHT22;59475;52.464;13.590;2023-07-31T07:42:09;16.52;93.94
71627;DHT22;59475;52.464;13.590;2023-07-31T07:44:34;16.61;93.60
71627;DHT22;59475;52.464;13.590;2023-07-31T07:47:00;16.69;93.65
71627;DHT22;59475;52.464;13.590;2023-07-31T07:49:25;16.68;92.66
71627;DHT22;59475;52.464;13.590;2023-07-31T07:51:51;16.80;93.32
71627;DHT22;59475;52.464;13.590;2023-07-31T07:54:16;16.90;92.70
71627;DHT22;59475;52.464;13.590;2023-07-31T07:56:42;16.99;92.25
71627;DHT22;59475;52.464;13.590;2023-07-31T07:59:08;17.09;92.54
71627;DHT22;59475;52.464;13.590;2023-07-31T08:01:33;17.30;91.62
71627;DHT22;59475;52.464;13.590;2023-07-31T08:03:59;17.47;90.55
71627;DHT22;59475;52.464;13.590;2023-07-31T08:06:24;17.52;90.29
71627;DHT22;59475;52.464;13.590;2023-07-31T08:08:50;17.58;89.52
71627;DHT22;59475;52.464;13.590;2023-07-31T08:11:15;17.44;89.45
71627;DHT22;59475;52.464;13.590;2023-07-31T08:13:41;17.26;90.21
71627;DHT22;59475;52.464;13.590;2023-07-31T08:16:06;17.16;90.70
71627;DHT22;59475;52.464;13.590;2023-07-31T08:18:32;17.27;91.27
71627;DHT22;59475;52.464;13.590;2023-07-31T08:20:57;17.31;90.95
71627;DHT22;59475;52.464;13.590;2023-07-31T08:23:23;17.45;91.01
71627;DHT22;59475;52.464;13.590;2023-07-31T08:25:48;17.45;91.16
71627;DHT22;59475;52.464;13.590;2023-07-31T08:28:16;17.44;91.47
71627;DHT22;59475;52.464;13.590;2023-07-31T08:34:03;17.03;91.73
71627;DHT22;59475;52.464;13.590;2023-07-31T08:36:28;17.04;93.36
71627;DHT22;59475;52.464;13.590;2023-07-31T08:38:53;17.04;92.68
71627;DHT22;59475;52.464;13.590;2023-07-31T08:41:19;17.14;92.68
71627;DHT22;59475;52.464;13.590;2023-07-31T08:43:49;17.28;92.85
71627;DHT22;59475;52.464;13.590;2023-07-31T08:46:15;17.38;93.20
71627;DHT22;59475;52.464;13.590;2023-07-31T08:48:42;17.58;92.87
71627;DHT22;59475;52.464;13.590;2023-07-31T08:51:07;17.58;91.87
71627;DHT22;59475;52.464;13.590;2023-07-31T08:53:33;17.59;92.12
71627;DHT22;59475;52.464;13.590;2023-07-31T08:59:22;17.59;91.78
71627;DHT22;59475;52.464;13.590;2023-07-31T09:01:50;17.81;91.11
71627;DHT22;59475;52.464;13.590;2023-07-31T09:07:40;18.07;90.37
71627;DHT22;59475;52.464;13.590;2023-07-31T09:10:06;18.00;89.21
71627;DHT22;59475;52.464;13.590;2023-07-31T09:12:31;17.95;89.35
71627;DHT22;59475;52.464;13.590;2023-07-31T09:18:18;17.87;90.06
71627;DHT22;59475;52.464;13.590;2023-07-31T09:21:06;18.06;89.80
71627;DHT22;59475;52.464;13.590;2023-07-31T09:23:44;18.27;89.23
71627;DHT22;59475;52.464;13.590;2023-07-31T09:26:10;18.48;88.76
71627;DHT22;59475;52.464;13.590;2023-07-31T09:28:36;18.64;87.00
71627;DHT22;59475;52.464;13.590;2023-07-31T09:31:01;18.58;86.13
71627;DHT22;59475;52.464;13.590;2023-07-31T09:33:26;18.65;86.37
71627;DHT22;59475;52.464;13.590;2023-07-31T09:39:15;18.61;85.42
71627;DHT22;59475;52.464;13.590;2023-07-31T09:41:47;18.38;86.19
71627;DHT22;59475;52.464;13.590;2023-07-31T09:44:12;18.41;87.62
71627;DHT22;59475;52.464;13.590;2023-07-31T09:46:38;18.36;88.10
71627;DHT22;59475;52.464;13.590;2023-07-31T09:49:08;18.18;88.69
71627;DHT22;59475;52.464;13.590;2023-07-31T09:51:35;17.97;87.35
71627;DHT22;59475;52.464;13.590;2023-07-31T09:54:14;17.81;87.96
71627;DHT22;59475;52.464;13.590;2023-07-31T09:56:44;17.74;88.17
71627;DHT22;59475;52.464;13.590;2023-07-31T09:59:15;17.78;88.30
71627;DHT22;59475;52.464;13.590;2023-07-31T10:01:42;17.90;88.39
71627;DHT22;59475;52.464;13.590;2023-07-31T10:04:09;18.06;88.60
71627;DHT22;59475;52.464;13.590;2023-07-31T10:06:36;18.16;87.65
71627;DHT22;59475;52.464;13.590;2023-07-31T10:09:03;18.33;86.44
71627;DHT22;59475;52.464;13.590;2023-07-31T10:11:31;18.45;86.81
71627;DHT22;59475;52.464;13.590;2023-07-31T10:13:59;18.48;85.78
71627;DHT22;59475;52.464;13.590;2023-07-31T10:16:24;18.61;85.69
71627;DHT22;59475;52.464;13.590;2023-07-31T10:18:50;18.64;85.76
71627;DHT22;59475;52.464;13.590;2023-07-31T10:21:17;18.78;85.63
71627;DHT22;59475;52.464;13.590;2023-07-31T10:23:44;18.81;85.72
71627;DHT22;59475;52.464;13.590;2023-07-31T10:29:31;18.73;86.00
71627;DHT22;59475;52.464;13.590;2023-07-31T10:31:58;18.73;87.24
71627;DHT22;59475;52.464;13.590;2023-07-31T10:34:24;18.72;86.80
71627;DHT22;59475;52.464;13.590;2023-07-31T10:36:50;18.62;85.71
71627;DHT22;59475;52.464;13.590;2023-07-31T10:39:38;18.62;86.99
71627;DHT22;59475;52.464;13.590;2023-07-31T10:45:37;18.84;87.80
71627;DHT22;59475;52.464;13.590;2023-07-31T10:48:06;18.89;87.44
71627;DHT22;59475;52.464;13.590;2023-07-31T10:50:37;18.98;86.97
71627;DHT22;59475;52.464;13.590;2023-07-31T10:53:03;19.37;87.21
71627;DHT22;59475;52.464;13.590;2023-07-31T10:55:41;19.68;84.96
71627;DHT22;59475;52.464;13.590;2023-07-31T10:58:12;20.36;83.44
71627;DHT22;59475;52.464;13.590;2023-07-31T11:00:39;21.06;81.74
71627;DHT22;59475;52.464;13.590;2023-07-31T11:03:07;21.59;79.38
71627;DHT22;59475;52.464;13.590;2023-07-31T11:08:27;22.23;76.13
71627;DHT22;59475;52.464;13.590;2023-07-31T11:13:31;22.01;76.50
71627;DHT22;59475;52.464;13.590;2023-07-31T11:15:57;22.11;74.46
71627;DHT22;59475;52.464;13.590;2023-07-31T11:18:23;22.61;73.73
71627;DHT22;59475;52.464;13.590;2023-07-31T11:20:48;22.73;74.13
71627;DHT22;59475;52.464;13.590;2023-07-31T11:23:16;22.67;72.16
71627;DHT22;59475;52.464;13.590;2023-07-31T11:25:42;22.28;73.14
71627;DHT22;59475;52.464;13.590;2023-07-31T11:28:13;22.25;73.52
71627;DHT22;59475;52.464;13.590;2023-07-31T11:30:40;22.31;72.81
71627;DHT22;59475;52.464;13.590;2023-07-31T11:33:09;22.21;72.16
71627;DHT22;59475;52.464;13.590;2023-07-31T11:35:41;22.05;71.06
71627;DHT22;59475;52.464;13.590;2023-07-31T11:38:07;21.91;72.20
71627;DHT22;59475;52.464;13.590;2023-07-31T11:40:43;22.08;70.90
71627;DHT22;59475;52.464;13.590;2023-07-31T11:43:12;22.41;69.05
71627;DHT22;59475;52.464;13.590;2023-07-31T11:45:44;22.48;68.50
71627;DHT22;59475;52.464;13.590;2023-07-31T11:48:10;22.39;69.27
71627;DHT22;59475;52.464;13.590;2023-07-31T11:50:35;22.18;68.04
71627;DHT22;59475;52.464;13.590;2023-07-31T11:53:05;21.88;69.56
71627;DHT22;59475;52.464;13.590;2023-07-31T11:55:32;21.60;69.61
71627;DHT22;59475;52.464;13.590;2023-07-31T11:57:58;21.47;69.99
71627;DHT22;59475;52.464;13.590;2023-07-31T12:03:46;21.40;70.92
71627;DHT22;59475;52.464;13.590;2023-07-31T12:06:12;21.28;71.14
71627;DHT22;59475;52.464;13.590;2023-07-31T12:08:37;21.23;71.60
71627;DHT22;59475;52.464;13.590;2023-07-31T12:11:08;21.13;71.24
71627;DHT22;59475;52.464;13.590;2023-07-31T12:13:36;21.01;70.71
71627;DHT22;59475;52.464;13.590;2023-07-31T12:16:03;20.91;71.17
71627;DHT22;59475;52.464;13.590;2023-07-31T12:18:33;20.90;71.47
71627;DHT22;59475;52.464;13.590;2023-07-31T12:21:01;20.99;71.70
71627;DHT22;59475;52.464;13.590;2023-07-31T12:23:34;21.21;71.95
71627;DHT22;59475;52.464;13.590;2023-07-31T12:28:41;21.38;70.86
71627;DHT22;59475;52.464;13.590;2023-07-31T12:31:09;21.40;70.98
71627;DHT22;59475;52.464;13.590;2023-07-31T12:33:36;21.60;70.14
71627;DHT22;59475;52.464;13.590;2023-07-31T12:36:08;21.70;70.33
71627;DHT22;59475;52.464;13.590;2023-07-31T12:38:34;21.59;71.14
71627;DHT22;59475;52.464;13.590;2023-07-31T12:40:59;21.28;71.38
71627;DHT22;59475;52.464;13.590;2023-07-31T12:43:25;21.29;73.00
71627;DHT22;59475;52.464;13.590;2023-07-31T12:45:50;21.16;72.44
71627;DHT22;59475;52.464;13.590;2023-07-31T12:48:16;21.11;72.54
71627;DHT22;59475;52.464;13.590;2023-07-31T12:54:03;21.45;70.81
71627;DHT22;59475;52.464;13.590;2023-07-31T12:56:29;21.64;70.88
71627;DHT22;59475;52.464;13.590;2023-07-31T12:58:55;21.77;70.06
71627;DHT22;59475;52.464;13.590;2023-07-31T13:01:20;21.77;70.40
71627;DHT22;59475;52.464;13.590;2023-07-31T13:03:45;21.70;70.30
71627;DHT22;59475;52.464;13.590;2023-07-31T13:06:11;21.85;70.03
71627;DHT22;59475;52.464;13.590;2023-07-31T13:08:36;22.09;69.08
71627;DHT22;59475;52.464;13.590;2023-07-31T13:11:01;22.36;68.33
71627;DHT22;59475;52.464;13.590;2023-07-31T13:13:27;22.32;67.53
71627;DHT22;59475;52.464;13.590;2023-07-31T13:15:52;22.16;68.27
71627;DHT22;59475;52.464;13.590;2023-07-31T13:18:17;22.14;68.63
71627;DHT22;59475;52.464;13.590;2023-07-31T13:20:43;22.02;68.81
71627;DHT22;59475;52.464;13.590;2023-07-31T13:23:08;21.68;69.72
71627;DHT22;59475;52.464;13.590;2023-07-31T13:25:34;21.68;69.91
71627;DHT22;59475;52.464;13.590;2023-07-31T13:31:21;21.57;70.35
71627;DHT22;59475;52.464;13.590;2023-07-31T13:33:46;21.59;71.05
71627;DHT22;59475;52.464;13.590;2023-07-31T13:36:11;21.54;71.04
71627;DHT22;59475;52.464;13.590;2023-07-31T13:38:39;21.46;70.95
71627;DHT22;59475;52.464;13.590;2023-07-31T13:41:04;21.47;72.00
71627;DHT22;59475;52.464;13.590;2023-07-31T13:46:52;21.25;73.68
71627;DHT22;59475;52.464;13.590;2023-07-31T13:49:17;21.33;72.86
71627;DHT22;59475;52.464;13.590;2023-07-31T13:51:43;21.43;71.71
71627;DHT22;59475;52.464;13.590;2023-07-31T13:54:09;21.60;71.16
71627;DHT22;59475;52.464;13.590;2023-07-31T13:56:37;21.78;71.63
71627;DHT22;59475;52.464;13.590;2023-07-31T13:59:02;21.94;70.42
71627;DHT22;59475;52.464;13.590;2023-07-31T14:01:27;21.88;69.71
71627;DHT22;59475;52.464;13.590;2023-07-31T14:03:53;21.90;70.99
71627;DHT22;59475;52.464;13.590;2023-07-31T14:06:19;21.95;70.73
71627;DHT22;59475;52.464;13.590;2023-07-31T14:08:44;22.00;70.21
71627;DHT22;59475;52.464;13.590;2023-07-31T14:11:10;22.00;70.30
71627;DHT22;59475;52.464;13.590;2023-07-31T14:13:35;21.95;70.08
71627;DHT22;59475;52.464;13.590;2023-07-31T14:16:00;22.02;70.11
71627;DHT22;59475;52.464;13.590;2023-07-31T14:18:26;22.09;70.38
71627;DHT22;59475;52.464;13.590;2023-07-31T14:20:51;21.91;70.29
71627;DHT22;59475;52.464;13.590;2023-07-31T14:23:17;21.98;69.72
71627;DHT22;59475;52.464;13.590;2023-07-31T14:25:42;22.19;70.16
71627;DHT22;59475;52.464;13.590;2023-07-31T14:28:08;22.28;69.70
71627;DHT22;59475;52.464;13.590;2023-07-31T14:30:33;22.28;69.64
71627;DHT22;59475;52.464;13.590;2023-07-31T14:32:58;22.36;69.92
71627;DHT22;59475;52.464;13.590;2023-07-31T14:35:25;22.39;69.33
71627;DHT22;59475;52.464;13.590;2023-07-31T14:37:51;22.38;70.09
71627;DHT22;59475;52.464;13.590;2023-07-31T14:40:17;22.26;69.55
71627;DHT22;59475;52.464;13.590;2023-07-31T14:42:42;22.18;69.92
71627;DHT22;59475;52.464;13.590;2023-07-31T14:45:08;22.12;69.88
71627;DHT22;59475;52.464;13.590;2023-07-31T14:47:36;22.09;69.75
71627;DHT22;59475;52.464;13.590;2023-07-31T14:50:02;22.14;70.06
71627;DHT22;59475;52.464;13.590;2023-07-31T14:55:49;22.08;69.86
71627;DHT22;59475;52.464;13.590;2023-07-31T14:58:15;22.26;70.27
71627;DHT22;59475;52.464;13.590;2023-07-31T15:00:42;22.33;70.02
71627;DHT22;59475;52.464;13.590;2023-07-31T15:03:07;22.33;69.61
71627;DHT22;59475;52.464;13.590;2023-07-31T15:05:32;22.19;69.83
71627;DHT22;59475;52.464;13.590;2023-07-31T15:07:58;22.05;69.88
71627;DHT22;59475;52.464;13.590;2023-07-31T15:10:23;22.05;70.03
71627;DHT22;59475;52.464;13.590;2023-07-31T15:12:49;22.00;69.74
71627;DHT22;59475;52.464;13.590;2023-07-31T15:15:15;21.95;69.48
71627;DHT22;59475;52.464;13.590;2023-07-31T15:17:40;21.94;70.22
71627;DHT22;59475;52.464;13.590;2023-07-31T15:20:06;21.85;69.72
71627;DHT22;59475;52.464;13.590;2023-07-31T15:22:32;21.88;70.45
71627;DHT22;59475;52.464;13.590;2023-07-31T15:24:57;21.83;69.80
71627;DHT22;59475;52.464;13.590;2023-07-31T15:27:22;21.84;69.69
71627;DHT22;59475;52.464;13.590;2023-07-31T15:29:49;21.77;70.32
71627;DHT22;59475;52.464;13.590;2023-07-31T15:32:16;21.73;71.38
71627;DHT22;59475;52.464;13.590;2023-07-31T15:34:43;21.68;72.60
71627;DHT22;59475;52.464;13.590;2023-07-31T15:37:08;21.64;73.42
71627;DHT22;59475;52.464;13.590;2023-07-31T15:39:34;21.47;72.76
71627;DHT22;59475;52.464;13.590;2023-07-31T15:41:59;21.38;73.08
71627;DHT22;59475;52.464;13.590;2023-07-31T15:44:24;21.29;72.99
71627;DHT22;59475;52.464;13.590;2023-07-31T15:46:50;21.28;72.61
71627;DHT22;59475;52.464;13.590;2023-07-31T15:49:15;21.21;72.54
71627;DHT22;59475;52.464;13.590;2023-07-31T15:51:41;21.21;72.69
71627;DHT22;59475;52.464;13.590;2023-07-31T15:54:06;21.29;72.32
71627;DHT22;59475;52.464;13.590;2023-07-31T15:56:32;21.32;73.47
71627;DHT22;59475;52.464;13.590;2023-07-31T15:58:57;21.32;73.68
71627;DHT22;59475;52.464;13.590;2023-07-31T16:01:23;21.33;73.14
71627;DHT22;59475;52.464;13.590;2023-07-31T16:03:49;21.35;73.13
71627;DHT22;59475;52.464;13.590;2023-07-31T16:06:14;21.33;72.70
71627;DHT22;59475;52.464;13.590;2023-07-31T16:12:02;21.33;72.67
71627;DHT22;59475;52.464;13.590;2023-07-31T16:14:27;21.33;72.11
71627;DHT22;59475;52.464;13.590;2023-07-31T16:20:14;21.49;70.78
71627;DHT22;59475;52.464;13.590;2023-07-31T16:22:40;21.56;71.27